createdAt,value
2023-04-12T00:01:39.361Z,2.32
2023-04-12T00:04:06.412Z,2.33
2023-04-12T00:06:33.800Z,2.30
2023-04-12T00:09:04.345Z,2.22
2023-04-12T00:11:31.688Z,2.12
2023-04-12T00:13:58.709Z,2.13
2023-04-12T00:16:25.727Z,2.16
2023-04-12T00:18:54.676Z,2.11
2023-04-12T00:21:23.835Z,2.12
2023-04-12T00:23:50.836Z,2.14
2023-04-12T00:26:17.736Z,2.20
2023-04-12T00:28:44.906Z,2.23
2023-04-12T00:31:12.245Z,2.43
2023-04-12T00:33:39.280Z,2.42
2023-04-12T00:36:06.448Z,2.53
2023-04-12T00:38:37.191Z,2.31
2023-04-12T00:41:05.026Z,2.21
2023-04-12T00:43:31.954Z,2.22
2023-04-12T00:45:59.245Z,2.23
2023-04-12T00:48:27.442Z,2.23
2023-04-12T00:50:57.785Z,2.35
2023-04-12T00:53:24.841Z,2.39
2023-04-12T00:55:54.608Z,2.42
2023-04-12T00:58:26.007Z,2.43
2023-04-12T01:00:54.913Z,2.44
2023-04-12T01:03:23.677Z,2.39
2023-04-12T01:06:09.631Z,2.32
2023-04-12T01:08:36.751Z,2.31
2023-04-12T01:11:06.933Z,2.24
2023-04-12T01:13:54.111Z,2.17
2023-04-12T01:16:28.438Z,2.14
2023-04-12T01:18:59.841Z,2.11
2023-04-12T01:21:43.101Z,2.09
2023-04-12T01:24:21.997Z,2.03
2023-04-12T01:26:49.655Z,1.97
2023-04-12T01:29:18.115Z,2.01
2023-04-12T01:31:53.218Z,1.96
2023-04-12T01:34:23.538Z,2.00
2023-04-12T01:36:52.284Z,1.95
2023-04-12T01:39:20.289Z,1.96
2023-04-12T01:41:49.569Z,1.90
2023-04-12T01:44:17.061Z,1.86
2023-04-12T01:46:45.012Z,1.81
2023-04-12T01:49:12.995Z,1.69
2023-04-12T01:51:45.076Z,1.57
2023-04-12T01:54:13.674Z,1.63
2023-04-12T01:56:43.480Z,1.75
2023-04-12T01:59:19.509Z,1.76
2023-04-12T02:01:47.465Z,1.84
2023-04-12T02:04:19.357Z,1.73
2023-04-12T02:06:47.244Z,1.67
2023-04-12T02:09:16.979Z,1.63
2023-04-12T02:11:50.920Z,1.63
2023-04-12T02:14:17.832Z,1.65
2023-04-12T02:16:45.724Z,1.63
2023-04-12T02:19:12.817Z,1.55
2023-04-12T02:21:43.291Z,1.49
2023-04-12T02:24:11.303Z,1.37
2023-04-12T02:26:38.744Z,1.25
2023-04-12T02:29:09.272Z,1.13
2023-04-12T02:31:38.811Z,1.05
2023-04-12T02:34:08.456Z,1.00
2023-04-12T02:36:38.924Z,0.94
2023-04-12T02:39:07.424Z,0.94
2023-04-12T02:41:35.434Z,0.96
2023-04-12T02:44:04.595Z,0.91
2023-04-12T02:46:35.557Z,0.84
2023-04-12T02:49:03.680Z,0.82
2023-04-12T02:51:36.684Z,0.78
2023-04-12T02:54:03.954Z,0.69
2023-04-12T02:56:43.841Z,0.63
2023-04-12T02:59:34.292Z,0.56
2023-04-12T03:02:15.984Z,0.50
2023-04-12T03:04:51.039Z,0.44
2023-04-12T03:07:23.893Z,0.42
2023-04-12T03:09:54.380Z,0.42
2023-04-12T03:12:26.667Z,0.40
2023-04-12T03:15:14.469Z,0.37
2023-04-12T03:17:45.658Z,0.40
2023-04-12T03:20:14.567Z,0.31
2023-04-12T03:22:48.592Z,0.34
2023-04-12T03:25:17.983Z,0.40
2023-04-12T03:27:58.569Z,0.40
2023-04-12T03:30:37.690Z,0.44
2023-04-12T03:33:10.857Z,0.44
2023-04-12T03:35:39.307Z,0.45
2023-04-12T03:38:06.837Z,0.56
2023-04-12T03:40:33.990Z,0.51
2023-04-12T03:43:02.124Z,0.55
2023-04-12T03:45:30.746Z,0.54
2023-04-12T03:48:05.719Z,0.45
2023-04-12T03:50:45.030Z,0.54
2023-04-12T03:53:19.537Z,0.53
2023-04-12T03:55:50.550Z,0.52
2023-04-12T03:58:23.473Z,0.54
2023-04-12T04:00:50.464Z,0.50
2023-04-12T04:03:20.953Z,0.42
2023-04-12T04:05:57.825Z,0.40
2023-04-12T04:08:29.045Z,0.32
2023-04-12T04:10:57.085Z,0.18
2023-04-12T04:13:28.934Z,0.15
2023-04-12T04:16:03.719Z,0.14
2023-04-12T04:18:33.310Z,-0.02
2023-04-12T04:21:01.628Z,-0.01
2023-04-12T04:23:43.523Z,-0.08
2023-04-12T04:26:12.473Z,-0.17
2023-04-12T04:28:46.518Z,-0.23
2023-04-12T04:31:20.609Z,-0.28
2023-04-12T04:33:55.933Z,-0.36
2023-04-12T04:36:32.873Z,-0.42
2023-04-12T04:39:01.189Z,-0.42
2023-04-12T04:41:46.669Z,-0.40
2023-04-12T04:44:22.978Z,-0.39
2023-04-12T04:46:54.652Z,-0.38
2023-04-12T04:49:24.231Z,-0.39
2023-04-12T04:51:51.801Z,-0.36
2023-04-12T04:54:21.116Z,-0.30
2023-04-12T04:56:49.304Z,-0.22
2023-04-12T04:59:24.477Z,-0.09
2023-04-12T05:01:57.721Z,0.03
2023-04-12T05:04:24.800Z,0.09
2023-04-12T05:06:51.741Z,0.26
2023-04-12T05:09:24.133Z,0.34
2023-04-12T05:11:59.112Z,0.35
2023-04-12T05:14:43.395Z,0.36
2023-04-12T05:17:15.138Z,0.38
2023-04-12T05:19:44.809Z,0.42
2023-04-12T05:22:13.079Z,0.46
2023-04-12T05:24:40.967Z,0.42
2023-04-12T05:27:10.954Z,0.53
2023-04-12T05:29:41.583Z,0.69
2023-04-12T05:32:15.368Z,0.77
2023-04-12T05:34:50.972Z,0.97
2023-04-12T05:37:19.329Z,1.20
2023-04-12T05:39:48.563Z,1.79
2023-04-12T05:42:22.010Z,2.10
2023-04-12T05:44:53.884Z,2.33
2023-04-12T05:47:25.379Z,3.12
2023-04-12T05:49:56.343Z,3.93
2023-04-12T05:52:23.292Z,4.09
2023-04-12T05:54:52.556Z,4.30
2023-04-12T05:57:21.148Z,5.00
2023-04-12T05:59:49.198Z,4.59
2023-04-12T06:02:18.717Z,4.26
2023-04-12T06:04:50.671Z,4.23
2023-04-12T06:07:21.188Z,4.09
2023-04-12T06:09:49.896Z,4.05
2023-04-12T06:12:17.614Z,4.00
2023-04-12T06:14:45.159Z,4.30
2023-04-12T06:17:16.650Z,4.53
2023-04-12T06:19:44.208Z,4.87
2023-04-12T06:22:15.376Z,5.56
2023-04-12T06:24:42.916Z,5.67
2023-04-12T06:27:11.543Z,5.87
2023-04-12T06:29:39.458Z,6.49
2023-04-12T06:32:06.637Z,6.63
2023-04-12T06:34:34.803Z,6.25
2023-04-12T06:37:09.916Z,5.77
2023-04-12T06:39:37.102Z,5.36
2023-04-12T06:42:04.169Z,5.55
2023-04-12T06:44:33.353Z,6.19
2023-04-12T06:47:03.128Z,6.39
2023-04-12T06:49:34.262Z,6.05
2023-04-12T06:52:01.320Z,5.91
2023-04-12T06:54:28.469Z,5.47
2023-04-12T06:56:57.336Z,5.30
2023-04-12T06:59:24.468Z,5.81
2023-04-12T07:01:52.056Z,6.21
2023-04-12T07:04:19.146Z,6.17
2023-04-12T07:06:46.279Z,6.13
2023-04-12T07:09:13.184Z,5.92
2023-04-12T07:11:43.263Z,5.97
2023-04-12T07:14:10.461Z,6.11
2023-04-12T07:16:37.544Z,6.24
2023-04-12T07:19:04.605Z,6.37
2023-04-12T07:21:34.546Z,6.53
2023-04-12T07:24:01.618Z,7.10
2023-04-12T07:26:28.641Z,7.41
2023-04-12T07:28:56.530Z,7.19
2023-04-12T07:31:24.145Z,7.12
2023-04-12T07:33:51.762Z,7.18
2023-04-12T07:36:21.360Z,7.28
2023-04-12T07:38:49.295Z,7.35
2023-04-12T07:41:18.507Z,7.28
2023-04-12T07:43:45.821Z,7.29
2023-04-12T07:46:12.869Z,7.48
2023-04-12T07:48:39.856Z,7.72
2023-04-12T07:51:09.657Z,7.92
2023-04-12T07:53:36.853Z,8.13
2023-04-12T07:56:07.057Z,8.23
2023-04-12T07:58:40.434Z,8.37
2023-04-12T08:01:07.443Z,8.42
2023-04-12T08:03:34.835Z,8.57
2023-04-12T08:06:02.052Z,8.88
2023-04-12T08:08:29.106Z,9.07
2023-04-12T08:10:56.174Z,9.32
2023-04-12T08:13:26.376Z,9.63
2023-04-12T08:15:53.402Z,10.17
2023-04-12T08:18:21.089Z,10.51
2023-04-12T08:20:49.358Z,10.94
2023-04-12T08:23:16.559Z,11.16
2023-04-12T08:25:43.609Z,11.49
2023-04-12T08:28:10.642Z,11.73
2023-04-12T08:30:38.838Z,11.87
2023-04-12T08:33:06.051Z,11.98
2023-04-12T08:35:35.895Z,11.92
2023-04-12T08:38:07.547Z,11.59
2023-04-12T08:40:37.811Z,11.59
2023-04-12T08:43:10.029Z,11.82
2023-04-12T08:45:39.651Z,11.91
2023-04-12T08:48:10.052Z,12.18
2023-04-12T08:50:37.152Z,12.38
2023-04-12T08:53:04.231Z,12.08
2023-04-12T08:55:31.788Z,11.88
2023-04-12T08:58:01.880Z,12.17
2023-04-12T09:00:29.253Z,12.01
2023-04-12T09:02:56.473Z,12.24
2023-04-12T09:05:30.628Z,12.46
2023-04-12T09:07:58.389Z,12.75
2023-04-12T09:10:33.672Z,12.79
2023-04-12T09:13:01.257Z,12.91
2023-04-12T09:15:28.269Z,12.75
2023-04-12T09:18:06.168Z,12.53
2023-04-12T09:20:33.518Z,12.87
2023-04-12T09:23:02.785Z,12.74
2023-04-12T09:25:36.765Z,12.89
2023-04-12T09:28:04.278Z,14.02
2023-04-12T09:30:43.813Z,14.92
2023-04-12T09:33:14.328Z,15.28
2023-04-12T09:35:43.185Z,15.11
2023-04-12T09:38:13.278Z,14.09
2023-04-12T09:40:41.857Z,13.92
2023-04-12T09:43:09.421Z,14.06
2023-04-12T09:45:39.098Z,15.10
2023-04-12T09:48:07.627Z,15.81
2023-04-12T09:50:35.106Z,15.92
2023-04-12T09:53:03.215Z,16.33
2023-04-12T09:55:34.789Z,15.47
2023-04-12T09:58:05.355Z,14.50
2023-04-12T10:00:34.784Z,15.02
2023-04-12T10:03:03.633Z,15.60
2023-04-12T10:05:31.254Z,16.09
2023-04-12T10:08:02.177Z,15.86
2023-04-12T10:10:30.969Z,16.18
2023-04-12T10:13:02.338Z,15.70
2023-04-12T10:15:30.530Z,15.93
2023-04-12T10:18:08.165Z,15.95
2023-04-12T10:20:37.216Z,15.59
2023-04-12T10:23:06.134Z,15.21
2023-04-12T10:25:38.080Z,14.80
2023-04-12T10:28:21.194Z,14.84
2023-04-12T10:30:49.698Z,15.37
2023-04-12T10:33:19.354Z,15.84
2023-04-12T10:35:51.168Z,15.77
2023-04-12T10:38:18.804Z,15.31
2023-04-12T10:41:09.142Z,14.87
2023-04-12T10:43:39.865Z,15.06
2023-04-12T10:46:07.174Z,15.29
2023-04-12T10:48:38.191Z,15.05
2023-04-12T10:51:14.096Z,15.34
2023-04-12T10:53:41.451Z,15.44
2023-04-12T10:56:47.091Z,15.17
2023-04-12T10:59:20.925Z,15.43
2023-04-12T11:02:06.845Z,15.55
2023-04-12T11:04:35.869Z,16.00
2023-04-12T11:07:12.286Z,16.34
2023-04-12T11:09:43.737Z,16.09
2023-04-12T11:12:34.345Z,16.20
2023-04-12T11:15:02.079Z,16.10
2023-04-12T11:17:42.355Z,15.70
2023-04-12T11:20:13.289Z,14.99
2023-04-12T11:22:43.455Z,15.44
2023-04-12T11:25:10.549Z,15.37
2023-04-12T11:27:49.233Z,15.80
2023-04-12T11:30:19.979Z,15.34
2023-04-12T11:32:47.793Z,13.92
2023-04-12T11:35:18.008Z,13.63
2023-04-12T11:37:47.683Z,13.84
2023-04-12T11:40:14.726Z,13.34
2023-04-12T11:42:44.607Z,12.86
2023-04-12T11:45:17.681Z,12.61
2023-04-12T11:47:46.242Z,12.25
2023-04-12T11:50:27.665Z,12.85
2023-04-12T11:52:58.519Z,12.66
2023-04-12T11:55:25.445Z,12.56
2023-04-12T11:57:56.102Z,12.47
2023-04-12T12:00:23.150Z,12.72
2023-04-12T12:03:04.443Z,12.76
2023-04-12T12:05:37.472Z,13.16
2023-04-12T12:08:07.661Z,13.58
2023-04-12T12:11:39.951Z,13.71
2023-04-12T12:13:25.402Z,13.77
2023-04-12T12:15:53.057Z,13.82
2023-04-12T12:18:25.574Z,13.48
2023-04-12T12:20:52.636Z,12.96
2023-04-12T12:23:29.719Z,13.23
2023-04-12T12:26:06.027Z,13.35
2023-04-12T12:28:41.698Z,13.64
2023-04-12T12:31:12.595Z,13.63
2023-04-12T12:33:46.411Z,13.61
2023-04-12T12:36:17.656Z,14.05
2023-04-12T12:38:44.633Z,14.62
2023-04-12T12:41:20.960Z,14.34
2023-04-12T12:43:51.898Z,13.99
2023-04-12T12:46:21.728Z,14.27
2023-04-12T12:48:49.313Z,14.04
2023-04-12T12:51:20.196Z,13.42
2023-04-12T12:53:47.270Z,12.98
2023-04-12T12:56:15.071Z,12.82
2023-04-12T12:58:42.277Z,12.55
2023-04-12T13:01:09.283Z,12.74
2023-04-12T13:03:36.831Z,12.65
2023-04-12T13:06:04.220Z,12.79
2023-04-12T13:08:35.161Z,12.86
2023-04-12T13:11:02.137Z,13.09
2023-04-12T13:13:29.104Z,13.45
2023-04-12T13:15:56.086Z,13.67
2023-04-12T13:18:23.156Z,14.00
2023-04-12T13:20:50.364Z,14.36
2023-04-12T13:23:17.450Z,14.29
2023-04-12T13:25:44.882Z,14.44
2023-04-12T13:28:12.912Z,14.36
2023-04-12T13:30:40.065Z,14.15
2023-04-12T13:33:07.176Z,13.99
2023-04-12T13:35:34.295Z,14.13
2023-04-12T13:38:01.239Z,13.89
2023-04-12T13:40:30.190Z,13.97
2023-04-12T13:42:57.120Z,13.84
2023-04-12T13:45:26.533Z,13.73
2023-04-12T13:47:53.710Z,13.58
2023-04-12T13:50:20.880Z,13.41
2023-04-12T13:52:47.902Z,13.21
2023-04-12T13:55:14.933Z,13.20
2023-04-12T13:57:41.901Z,13.17
2023-04-12T14:00:10.970Z,13.16
2023-04-12T14:02:47.090Z,13.04
2023-04-12T14:05:14.105Z,13.18
2023-04-12T14:07:41.201Z,13.21
2023-04-12T14:10:08.418Z,13.38
2023-04-12T14:12:35.635Z,13.34
2023-04-12T14:15:02.846Z,13.09
2023-04-12T14:17:32.776Z,12.76
2023-04-12T14:20:00.428Z,12.68
2023-04-12T14:22:27.846Z,12.51
2023-04-12T14:24:55.217Z,12.30
2023-04-12T14:27:27.951Z,12.02
2023-04-12T14:29:57.609Z,11.84
2023-04-12T14:32:24.624Z,11.69
2023-04-12T14:34:52.452Z,11.54
2023-04-12T14:37:19.401Z,11.35
2023-04-12T14:39:46.358Z,11.23
2023-04-12T14:42:13.297Z,11.27
2023-04-12T14:44:40.344Z,11.25
2023-04-12T14:47:07.742Z,11.27
2023-04-12T14:49:35.177Z,11.18
2023-04-12T14:52:02.610Z,11.21
2023-04-12T14:54:29.565Z,11.11
2023-04-12T14:56:57.171Z,11.05
2023-04-12T14:59:24.258Z,11.05
2023-04-12T15:01:52.954Z,10.83
2023-04-12T15:04:20.329Z,10.56
2023-04-12T15:06:49.811Z,10.34
2023-04-12T15:09:17.774Z,10.13
2023-04-12T15:11:47.883Z,10.15
2023-04-12T15:14:20.959Z,10.19
2023-04-12T15:16:51.155Z,10.19
2023-04-12T15:19:22.563Z,9.97
2023-04-12T15:21:55.360Z,9.94
2023-04-12T15:24:22.688Z,9.89
2023-04-12T15:26:50.998Z,9.80
2023-04-12T15:29:21.409Z,9.74
2023-04-12T15:31:54.409Z,9.51
2023-04-12T15:34:23.601Z,9.59
2023-04-12T15:36:52.038Z,9.48
2023-04-12T15:39:20.787Z,9.56
2023-04-12T15:41:50.072Z,9.45
2023-04-12T15:44:18.238Z,9.62
2023-04-12T15:46:56.265Z,9.56
2023-04-12T15:49:35.840Z,9.53
2023-04-12T15:52:03.152Z,9.52
2023-04-12T15:54:30.095Z,9.33
2023-04-12T15:56:57.163Z,9.24
2023-04-12T15:59:24.062Z,9.33
2023-04-12T16:01:51.878Z,9.43
2023-04-12T16:04:21.364Z,9.47
2023-04-12T16:06:48.376Z,9.25
2023-04-12T16:09:16.672Z,9.22
2023-04-12T16:11:44.130Z,9.13
2023-04-12T16:14:11.104Z,9.06
2023-04-12T16:16:40.444Z,9.09
2023-04-12T16:19:08.400Z,9.13
2023-04-12T16:21:35.987Z,9.11
2023-04-12T16:24:03.285Z,9.14
2023-04-12T16:26:30.413Z,9.08
2023-04-12T16:28:57.586Z,9.19
2023-04-12T16:31:25.452Z,9.19
2023-04-12T16:33:52.957Z,9.23
2023-04-12T16:36:23.434Z,9.30
2023-04-12T16:38:51.178Z,9.23
2023-04-12T16:41:18.675Z,9.19
2023-04-12T16:43:45.811Z,9.16
2023-04-12T16:46:12.914Z,9.06
2023-04-12T16:48:41.227Z,9.03
2023-04-12T16:51:08.279Z,9.06
2023-04-12T16:53:35.868Z,9.18
2023-04-12T16:56:02.851Z,9.11
2023-04-12T16:58:30.165Z,9.08
2023-04-12T17:00:57.871Z,9.06
2023-04-12T17:03:28.055Z,9.09
2023-04-12T17:05:55.101Z,9.06
2023-04-12T17:08:24.999Z,9.08
2023-04-12T17:10:52.043Z,9.10
2023-04-12T17:13:20.323Z,9.20
2023-04-12T17:15:50.702Z,9.26
2023-04-12T17:18:17.915Z,9.27
2023-04-12T17:20:45.357Z,9.40
2023-04-12T17:23:13.457Z,9.33
2023-04-12T17:25:42.469Z,9.25
2023-04-12T17:28:09.516Z,9.29
2023-04-12T17:30:36.628Z,9.25
2023-04-12T17:33:03.869Z,9.26
2023-04-12T17:35:31.259Z,9.28
2023-04-12T17:37:58.622Z,9.34
2023-04-12T17:40:25.611Z,9.26
2023-04-12T17:42:52.546Z,9.25
2023-04-12T17:45:24.072Z,9.21
2023-04-12T17:47:51.575Z,9.23
2023-04-12T17:50:18.885Z,9.21
2023-04-12T17:52:46.093Z,9.23
2023-04-12T17:55:13.156Z,9.20
2023-04-12T17:57:40.510Z,9.15
2023-04-12T18:00:11.929Z,9.13
2023-04-12T18:02:43.638Z,9.11
2023-04-12T18:05:13.948Z,9.16
2023-04-12T18:07:42.573Z,9.18
2023-04-12T18:10:10.815Z,9.17
2023-04-12T18:12:38.793Z,9.06
2023-04-12T18:15:08.588Z,9.05
2023-04-12T18:17:36.006Z,9.03
2023-04-12T18:20:05.197Z,8.95
2023-04-12T18:22:32.331Z,8.89
2023-04-12T18:24:59.603Z,8.85
2023-04-12T18:27:26.617Z,8.93
2023-04-12T18:29:53.559Z,8.86
2023-04-12T18:32:20.639Z,8.89
2023-04-12T18:34:48.705Z,8.85
2023-04-12T18:37:16.358Z,8.80
2023-04-12T18:39:43.395Z,8.79
2023-04-12T18:42:10.380Z,8.80
2023-04-12T18:44:37.921Z,8.85
2023-04-12T18:47:05.544Z,8.80
2023-04-12T18:49:32.523Z,8.88
2023-04-12T18:51:59.437Z,8.85
2023-04-12T18:54:27.872Z,8.78
2023-04-12T18:56:54.899Z,8.73
2023-04-12T18:59:22.159Z,8.71
2023-04-12T19:01:49.214Z,8.66
2023-04-12T19:04:16.821Z,8.67
2023-04-12T19:06:44.594Z,8.59
2023-04-12T19:09:11.615Z,8.56
2023-04-12T19:11:38.613Z,8.56
2023-04-12T19:14:05.661Z,8.63
2023-04-12T19:16:32.840Z,8.64
2023-04-12T19:19:00.512Z,8.66
2023-04-12T19:21:31.903Z,8.72
2023-04-12T19:24:01.364Z,8.69
2023-04-12T19:26:30.226Z,8.66
2023-04-12T19:28:59.334Z,8.68
2023-04-12T19:31:26.626Z,8.61
2023-04-12T19:33:54.775Z,8.59
2023-04-12T19:36:24.565Z,8.61
2023-04-12T19:38:54.833Z,8.57
2023-04-12T19:41:41.783Z,8.57
2023-04-12T19:44:15.594Z,8.66
2023-04-12T19:46:43.337Z,8.58
2023-04-12T19:49:10.793Z,8.60
2023-04-12T19:51:37.953Z,8.62
2023-04-12T19:54:05.092Z,8.63
2023-04-12T19:56:32.134Z,8.60
2023-04-12T19:59:00.006Z,8.60
2023-04-12T20:01:27.441Z,8.67
2023-04-12T20:03:54.819Z,8.63
2023-04-12T20:06:23.585Z,8.61
2023-04-12T20:08:52.519Z,8.60
2023-04-12T20:11:21.463Z,8.60
2023-04-12T20:13:48.453Z,8.60
2023-04-12T20:16:16.301Z,8.56
2023-04-12T20:18:43.472Z,8.53
2023-04-12T20:21:10.798Z,8.56
2023-04-12T20:23:37.959Z,8.58
2023-04-12T20:26:05.609Z,8.62
2023-04-12T20:28:32.925Z,8.56
2023-04-12T20:31:00.407Z,8.67
2023-04-12T20:33:27.467Z,8.60
2023-04-12T20:35:54.465Z,8.60
2023-04-12T20:38:22.265Z,8.70
2023-04-12T20:40:49.867Z,8.66
2023-04-12T20:43:16.927Z,8.68
2023-04-12T20:45:44.167Z,8.73
2023-04-12T20:48:11.625Z,8.70
2023-04-12T20:50:38.811Z,8.71
2023-04-12T20:53:06.378Z,8.75
2023-04-12T20:55:34.914Z,8.83
2023-04-12T20:58:03.265Z,8.83
2023-04-12T21:00:31.373Z,8.91
2023-04-12T21:02:58.561Z,8.83
2023-04-12T21:05:27.566Z,8.80
2023-04-12T21:07:54.862Z,8.81
2023-04-12T21:10:22.388Z,8.87
2023-04-12T21:12:50.079Z,8.79
2023-04-12T21:15:21.821Z,8.86
2023-04-12T21:17:50.774Z,8.89
2023-04-12T21:20:18.609Z,8.85
2023-04-12T21:22:47.642Z,8.96
2023-04-12T21:25:16.430Z,8.97
2023-04-12T21:27:43.765Z,9.03
2023-04-12T21:30:11.346Z,9.06
2023-04-12T21:32:38.833Z,9.07
2023-04-12T21:35:07.373Z,9.07
2023-04-12T21:37:36.032Z,9.15
2023-04-12T21:40:07.719Z,9.13
2023-04-12T21:42:38.432Z,9.13
2023-04-12T21:45:06.361Z,9.25
2023-04-12T21:47:33.625Z,9.15
2023-04-12T21:50:00.737Z,9.22
2023-04-12T21:52:27.733Z,9.19
2023-04-12T21:54:55.600Z,9.23
2023-04-12T21:57:22.700Z,9.23
2023-04-12T21:59:50.119Z,9.30
2023-04-12T22:02:17.167Z,9.35
2023-04-12T22:04:44.126Z,9.29
2023-04-12T22:07:12.896Z,9.36
2023-04-12T22:09:40.269Z,9.36
2023-04-12T22:12:12.097Z,9.31
2023-04-12T22:14:46.994Z,9.30
2023-04-12T22:17:14.832Z,9.31
2023-04-12T22:19:42.120Z,9.37
2023-04-12T22:22:09.387Z,9.39
2023-04-12T22:24:37.070Z,9.35
2023-04-12T22:27:04.394Z,9.32
2023-04-12T22:29:32.690Z,9.29
2023-04-12T22:32:00.508Z,9.20
2023-04-12T22:34:28.060Z,9.20
2023-04-12T22:37:03.332Z,9.13
2023-04-12T22:39:31.849Z,9.16
2023-04-12T22:41:59.336Z,9.16
2023-04-12T22:44:26.960Z,9.21
2023-04-12T22:46:54.735Z,9.19
2023-04-12T22:49:25.874Z,9.13
2023-04-12T22:51:52.875Z,9.09
2023-04-12T22:54:20.034Z,9.09
2023-04-12T22:56:47.031Z,9.15
2023-04-12T22:59:14.419Z,9.27
2023-04-12T23:01:42.002Z,9.30
2023-04-12T23:04:12.603Z,9.33
2023-04-12T23:06:43.216Z,9.38
2023-04-12T23:09:10.657Z,9.37
2023-04-12T23:11:39.691Z,9.43
2023-04-12T23:14:07.593Z,9.34
2023-04-12T23:16:34.601Z,9.37
2023-04-12T23:19:01.795Z,9.35
2023-04-12T23:21:30.325Z,9.41
2023-04-12T23:23:57.474Z,9.47
2023-04-12T23:26:24.677Z,9.33
2023-04-12T23:28:52.166Z,9.37
2023-04-12T23:31:19.206Z,9.34
2023-04-12T23:33:46.484Z,9.32
2023-04-12T23:36:13.491Z,9.33
2023-04-12T23:38:40.732Z,9.45
2023-04-12T23:41:10.133Z,9.27
2023-04-12T23:43:37.133Z,9.19
2023-04-12T23:46:04.600Z,9.14
2023-04-12T23:48:32.319Z,9.11
2023-04-12T23:50:59.369Z,9.05
2023-04-12T23:53:26.641Z,8.96
2023-04-12T23:55:54.015Z,8.94
2023-04-12T23:58:21.476Z,8.92
